Time;durP1;ratioP1;P1;durP2;ratioP2;P2;SDS_P1;SDS_P2;PMS_P1;PMS_P2;Temp;Humidity;BMP_temperature;BMP_pressure;BME280_temperature;BME280_humidity;BME280_pressure;Samples;Min_cycle;Max_cycle;Signal;HPM_P1;HPM_P2
2021/06/04 00:00:11;;;;;;;70.57;49.50;;;18.00;93.80;;;;;;5083905;28;20040;-56
2021/06/04 00:02:38;;;;;;;57.55;43.85;;;18.00;93.90;;;;;;5088090;28;20517;-54
2021/06/04 00:05:05;;;;;;;68.75;48.25;;;18.00;93.90;;;;;;5064787;28;20060;-56
2021/06/04 00:07:31;;;;;;;57.22;43.15;;;18.00;93.90;;;;;;5066524;28;20408;-55
2021/06/04 00:09:57;;;;;;;60.30;43.55;;;17.90;93.80;;;;;;5090813;28;20066;-56
2021/06/04 00:12:23;;;;;;;60.65;43.42;;;17.90;93.70;;;;;;5077602;28;20044;-56
2021/06/04 00:14:49;;;;;;;64.82;46.42;;;17.90;93.70;;;;;;5092230;28;20447;-55
2021/06/04 00:17:18;;;;;;;65.15;45.90;;;17.90;93.70;;;;;;5082471;28;20032;-55
2021/06/04 00:19:45;;;;;;;64.72;44.80;;;17.90;93.70;;;;;;5074589;28;20055;-56
2021/06/04 00:22:21;;;;;;;69.50;46.40;;;17.90;93.80;;;;;;5092575;28;20415;-56
2021/06/04 00:24:49;;;;;;;68.43;45.67;;;17.90;93.80;;;;;;5074431;28;20040;-55
2021/06/04 00:27:15;;;;;;;64.22;44.75;;;17.90;93.90;;;;;;5092679;28;20492;-56
2021/06/04 00:29:43;;;;;;;67.47;46.95;;;17.90;93.90;;;;;;5091146;28;20047;-56
2021/06/04 00:32:11;;;;;;;60.78;45.60;;;17.90;93.90;;;;;;5093223;28;20040;-55
2021/06/04 00:34:37;;;;;;;66.25;45.83;;;17.90;93.80;;;;;;5092718;28;20095;-55
2021/06/04 00:37:03;;;;;;;67.90;47.05;;;17.80;93.80;;;;;;5092160;28;20044;-56
2021/06/04 00:39:32;;;;;;;71.78;48.53;;;17.80;93.80;;;;;;5092534;28;20048;-56
2021/06/04 00:42:25;;;;;;;72.43;48.28;;;17.80;93.90;;;;;;5055364;28;20488;-56
2021/06/04 00:44:55;;;;;;;71.90;47.58;;;17.80;93.80;;;;;;5074888;28;20043;-56
2021/06/04 00:47:22;;;;;;;68.30;47.25;;;17.70;93.80;;;;;;5078863;28;20424;-56
2021/06/04 00:49:49;;;;;;;59.95;44.30;;;17.70;93.80;;;;;;5092580;28;20032;-56
2021/06/04 00:52:21;;;;;;;69.88;46.60;;;17.70;93.80;;;;;;5091994;28;20058;-54
2021/06/04 00:54:49;;;;;;;66.03;46.30;;;17.70;93.90;;;;;;5087047;28;20043;-55
2021/06/04 00:57:15;;;;;;;69.13;46.22;;;17.70;93.80;;;;;;5075510;28;20493;-56
2021/06/04 00:59:43;;;;;;;65.22;44.78;;;17.70;93.80;;;;;;5058094;28;20064;-54
2021/06/04 01:02:15;;;;;;;66.13;46.50;;;17.70;93.80;;;;;;5089729;28;20040;-54
2021/06/04 01:04:41;;;;;;;64.40;45.03;;;17.70;93.70;;;;;;5086522;28;20185;-53
2021/06/04 01:07:31;;;;;;;66.07;44.60;;;17.60;93.70;;;;;;5077292;28;20126;-56
2021/06/04 01:10:15;;;;;;;61.55;43.45;;;17.60;93.60;;;;;;5091977;28;20072;-56
2021/06/04 01:13:02;;;;;;;59.75;41.92;;;17.60;93.60;;;;;;5092655;28;20040;-55
2021/06/04 01:16:00;;;;;;;66.72;43.55;;;17.60;93.50;;;;;;5066633;28;20044;-55
2021/06/04 01:18:43;;;;;;;69.88;45.08;;;17.50;93.40;;;;;;5034237;28;20356;-55
2021/06/04 01:21:19;;;;;;;66.90;44.97;;;17.50;93.40;;;;;;5052948;28;20048;-57
2021/06/04 01:24:02;;;;;;;69.97;46.42;;;17.50;93.60;;;;;;5073181;28;20040;-56
2021/06/04 01:26:39;;;;;;;72.00;46.97;;;17.50;93.50;;;;;;5082581;28;20051;-55
2021/06/04 01:29:10;;;;;;;73.45;48.42;;;17.50;93.50;;;;;;5087527;28;20139;-55
2021/06/04 01:31:42;;;;;;;68.43;45.92;;;17.50;93.60;;;;;;5090823;28;20048;-56
2021/06/04 01:34:19;;;;;;;;;;;17.40;93.60;;;;;;5086360;28;20052;-58
2021/06/04 01:36:58;;;;;;;74.30;45.72;;;17.40;93.60;;;;;;5066466;28;20409;-55
2021/06/04 01:39:29;;;;;;;69.43;46.80;;;17.40;93.70;;;;;;5078302;28;20047;-56
2021/06/04 01:41:57;;;;;;;66.60;45.05;;;17.40;93.70;;;;;;5085110;28;20044;-56
2021/06/04 01:44:32;;;;;;;69.55;46.25;;;17.40;93.70;;;;;;5091131;28;20040;-57
2021/06/04 01:47:04;;;;;;;70.15;45.88;;;17.40;93.60;;;;;;5092159;28;20043;-56
2021/06/04 01:49:34;;;;;;;;;;;17.40;93.70;;;;;;5073560;28;20051;-56
2021/06/04 01:52:26;;;;;;;71.95;46.33;;;17.30;93.60;;;;;;5082967;28;20291;-55
2021/06/04 01:55:07;;;;;;;73.75;46.75;;;17.30;93.70;;;;;;5076030;28;20036;-56
2021/06/04 01:57:41;;;;;;;71.13;47.05;;;17.40;93.70;;;;;;5088172;28;20047;-56
2021/06/04 02:00:38;;;;;;;70.47;46.70;;;17.30;93.70;;;;;;5079393;28;20044;-56
2021/06/04 02:03:06;;;;;;;78.03;46.60;;;17.20;93.80;;;;;;5071135;28;20062;-55
2021/06/04 02:05:35;;;;;;;71.30;47.25;;;17.20;93.80;;;;;;5089340;28;20048;-56
2021/06/04 02:08:02;;;;;;;73.43;46.30;;;17.20;93.80;;;;;;5091638;28;20103;-56
2021/06/04 02:10:38;;;;;;;62.40;44.00;;;17.10;93.70;;;;;;5088955;28;20603;-56
2021/06/04 02:13:06;;;;;;;69.60;46.08;;;17.10;93.70;;;;;;5084028;28;20062;-56
2021/06/04 02:15:36;;;;;;;61.85;41.35;;;17.10;93.90;;;;;;5079717;28;20131;-56
2021/06/04 02:18:25;;;;;;;73.25;46.70;;;17.10;93.90;;;;;;5072737;28;20044;-56
2021/06/04 02:21:09;;;;;;;72.13;46.65;;;17.10;94.00;;;;;;5046098;28;20483;-57
2021/06/04 02:23:49;;;;;;;72.15;46.60;;;17.10;93.90;;;;;;5072479;28;20466;-57
2021/06/04 02:26:23;;;;;;;74.97;47.20;;;17.10;94.00;;;;;;5088784;28;20044;-57
2021/06/04 02:28:55;;;;;;;77.68;46.97;;;17.10;94.10;;;;;;5080591;28;20123;-57
2021/06/04 02:31:27;;;;;;;75.20;45.85;;;17.00;94.10;;;;;;5090464;28;20480;-57
2021/06/04 02:34:20;;;;;;;81.97;47.40;;;17.00;94.20;;;;;;5083917;28;20036;-56
2021/06/04 02:36:58;;;;;;;83.47;47.95;;;17.00;94.30;;;;;;5091163;28;20400;-54
2021/06/04 02:39:31;;;;;;;74.25;46.22;;;16.90;94.30;;;;;;5074871;28;20124;-53
2021/06/04 02:42:10;;;;;;;73.30;47.13;;;16.90;94.30;;;;;;5087746;28;20028;-56
2021/06/04 02:44:45;;;;;;;69.18;45.38;;;16.90;94.30;;;;;;5081535;28;20084;-56
2021/06/04 02:47:23;;;;;;;76.85;46.17;;;16.80;94.20;;;;;;5088245;28;20044;-56
2021/06/04 02:49:49;;;;;;;72.85;44.67;;;16.80;94.20;;;;;;5086197;28;20047;-57
2021/06/04 02:52:27;;;;;;;71.72;44.08;;;16.80;94.20;;;;;;5095264;28;20036;-55
2021/06/04 02:54:53;;;;;;;78.80;46.60;;;16.80;94.20;;;;;;5091059;28;20067;-55
2021/06/04 02:57:25;;;;;;;74.40;45.92;;;16.80;94.10;;;;;;5078463;28;20052;-55
2021/06/04 02:59:53;;;;;;;78.05;46.50;;;16.70;94.10;;;;;;5080964;28;20044;-56
2021/06/04 03:02:32;;;;;;;70.15;41.55;;;16.70;94.10;;;;;;5040194;28;20173;-57
2021/06/04 03:05:17;;;;;;;56.35;38.10;;;16.70;94.10;;;;;;5089565;28;20096;-57
2021/06/04 03:07:43;;;;;;;53.42;36.97;;;16.70;94.00;;;;;;5081489;28;20093;-57
2021/06/04 03:10:16;;;;;;;55.58;37.22;;;16.60;94.00;;;;;;5094472;28;20032;-56
2021/06/04 03:12:44;;;;;;;54.13;38.03;;;16.60;94.00;;;;;;5094844;28;20044;-56
2021/06/04 03:15:20;;;;;;;53.97;38.17;;;16.50;94.10;;;;;;5093451;28;20040;-56
2021/06/04 03:17:46;;;;;;;69.78;44.15;;;16.50;94.00;;;;;;5095637;28;20082;-57
2021/06/04 03:20:15;;;;;;;64.13;41.65;;;16.50;94.00;;;;;;5087608;28;20067;-55
2021/06/04 03:22:43;;;;;;;68.32;42.90;;;16.50;94.10;;;;;;5091734;28;20032;-56
2021/06/04 03:25:13;;;;;;;58.10;37.72;;;16.50;94.20;;;;;;5092945;28;20121;-56
2021/06/04 03:27:39;;;;;;;42.28;30.98;;;16.40;94.10;;;;;;5093565;28;20055;-57
2021/06/04 03:30:07;;;;;;;33.33;25.23;;;16.40;94.00;;;;;;5094488;28;20443;-56
2021/06/04 03:32:33;;;;;;;43.33;29.70;;;16.40;94.10;;;;;;5093814;28;20059;-57
2021/06/04 03:35:00;;;;;;;54.03;35.83;;;16.40;94.10;;;;;;5092992;28;20072;-57
2021/06/04 03:37:28;;;;;;;56.45;38.58;;;16.30;94.10;;;;;;5098949;28;20435;-57
2021/06/04 03:39:54;;;;;;;62.38;39.38;;;16.30;94.10;;;;;;5095082;28;20043;-56
2021/06/04 03:42:27;;;;;;;70.15;43.08;;;16.30;94.30;;;;;;5095170;28;20036;-57
2021/06/04 03:44:54;;;;;;;69.05;43.28;;;16.30;94.30;;;;;;5094369;28;20040;-57
2021/06/04 03:47:22;;;;;;;62.90;41.88;;;16.30;94.40;;;;;;5093212;28;20108;-57
2021/06/04 03:49:48;;;;;;;64.05;41.63;;;16.30;94.40;;;;;;5087664;28;20046;-56
2021/06/04 03:52:20;;;;;;;73.05;43.03;;;16.30;94.50;;;;;;5091308;28;20122;-56
2021/06/04 03:54:49;;;;;;;65.10;43.10;;;16.30;94.40;;;;;;5084700;28;20040;-56
2021/06/04 03:57:19;;;;;;;77.80;46.30;;;16.30;94.50;;;;;;5075771;28;20404;-57
2021/06/04 03:59:45;;;;;;;85.25;47.03;;;16.30;94.60;;;;;;5090755;28;20496;-57
2021/06/04 04:02:14;;;;;;;75.13;44.28;;;16.30;94.50;;;;;;5093231;28;20032;-56
2021/06/04 04:04:43;;;;;;;71.40;43.83;;;16.30;94.40;;;;;;5093087;28;20127;-55
2021/06/04 04:07:10;;;;;;;69.25;42.35;;;16.20;94.50;;;;;;5089778;28;20123;-55
2021/06/04 04:09:36;;;;;;;71.90;44.28;;;16.30;94.60;;;;;;5080060;28;20040;-56
2021/06/04 04:12:03;;;;;;;63.65;40.50;;;16.30;94.60;;;;;;5083299;28;20135;-56
2021/06/04 04:14:29;;;;;;;57.40;38.55;;;16.30;94.60;;;;;;5086152;28;20555;-57
2021/06/04 04:16:55;;;;;;;56.88;38.08;;;16.30;94.50;;;;;;5090236;28;20032;-57
2021/06/04 04:19:22;;;;;;;54.40;38.70;;;16.30;94.50;;;;;;5075175;28;20464;-57
2021/06/04 04:21:53;;;;;;;56.28;37.47;;;16.30;94.50;;;;;;5090692;28;20048;-56
2021/06/04 04:24:32;;;;;;;59.30;38.20;;;16.30;94.50;;;;;;5078497;28;20036;-56
2021/06/04 04:26:58;;;;;;;59.90;39.08;;;16.30;94.50;;;;;;5091793;28;20048;-57
2021/06/04 04:29:24;;;;;;;62.22;39.53;;;16.30;94.50;;;;;;5085072;28;20043;-57
2021/06/04 04:31:54;;;;;;;60.65;40.30;;;16.30;94.40;;;;;;5092738;28;20040;-57
2021/06/04 04:34:21;;;;;;;66.93;42.88;;;16.30;94.40;;;;;;5081592;28;20046;-57
2021/06/04 04:36:50;;;;;;;71.25;43.25;;;16.30;94.50;;;;;;5040770;28;20045;-56
2021/06/04 04:39:26;;;;;;;72.10;45.42;;;16.30;94.50;;;;;;5066006;28;20041;-57
2021/06/04 04:41:53;;;;;;;76.68;47.72;;;16.30;94.60;;;;;;5088878;28;20047;-56
2021/06/04 04:44:24;;;;;;;83.97;50.00;;;16.40;94.70;;;;;;5031370;28;20048;-57
2021/06/04 04:46:50;;;;;;;89.05;52.22;;;16.40;94.80;;;;;;5085604;28;20075;-57
2021/06/04 04:49:16;;;;;;;86.10;51.60;;;16.40;94.80;;;;;;5083753;28;20064;-57
2021/06/04 04:51:41;;;;;;;90.43;54.33;;;16.50;94.80;;;;;;5081768;28;20040;-56
2021/06/04 04:54:08;;;;;;;93.80;56.90;;;16.50;94.80;;;;;;5091584;28;20507;-56
2021/06/04 04:56:36;;;;;;;85.13;53.67;;;16.60;94.90;;;;;;5092521;28;20477;-57
2021/06/04 04:59:04;;;;;;;88.32;54.65;;;16.60;94.90;;;;;;5057587;28;20035;-57
2021/06/04 05:01:30;;;;;;;94.07;55.00;;;16.70;94.90;;;;;;5091022;28;20044;-56
2021/06/04 05:03:55;;;;;;;89.63;54.58;;;16.80;94.80;;;;;;5080014;28;20155;-57
2021/06/04 05:06:22;;;;;;;79.72;52.13;;;16.90;94.80;;;;;;5089602;28;20044;-57
2021/06/04 05:08:48;;;;;;;77.68;51.50;;;17.00;94.80;;;;;;5091960;28;20050;-57
2021/06/04 05:11:23;;;;;;;71.70;49.25;;;17.20;94.70;;;;;;5073650;28;20389;-54
2021/06/04 05:13:52;;;;;;;72.68;49.90;;;17.30;94.60;;;;;;5086383;28;20120;-57
2021/06/04 05:16:18;;;;;;;69.43;47.67;;;17.60;94.60;;;;;;5068529;28;20136;-56
2021/06/04 05:18:44;;;;;;;70.25;47.92;;;17.70;94.00;;;;;;5070827;28;20592;-57
2021/06/04 05:21:15;;;;;;;68.40;48.03;;;17.90;93.70;;;;;;5083275;28;20135;-57
2021/06/04 05:23:41;;;;;;;65.43;46.95;;;18.00;93.60;;;;;;5082360;28;20055;-57
2021/06/04 05:26:09;;;;;;;67.82;47.08;;;18.10;93.50;;;;;;5067171;28;20563;-57
2021/06/04 05:28:41;;;;;;;61.90;44.88;;;18.20;93.20;;;;;;5083869;28;20089;-56
2021/06/04 05:31:10;;;;;;;64.93;45.17;;;18.30;93.00;;;;;;5091832;28;20035;-57
2021/06/04 05:33:38;;;;;;;70.43;45.90;;;18.40;92.90;;;;;;5086124;28;20542;-56
2021/06/04 05:36:07;;;;;;;66.07;43.67;;;18.50;92.70;;;;;;5092837;28;20107;-55
2021/06/04 05:38:33;;;;;;;59.35;44.05;;;18.60;92.50;;;;;;5089970;28;20076;-53
2021/06/04 05:40:59;;;;;;;63.22;42.65;;;18.70;92.30;;;;;;5089372;28;20511;-53
2021/06/04 05:43:29;;;;;;;60.47;42.00;;;18.80;91.90;;;;;;5090236;28;20040;-53
2021/06/04 05:45:55;;;;;;;54.47;41.13;;;18.90;91.70;;;;;;5088648;28;20043;-52
2021/06/04 05:48:23;;;;;;;63.50;41.65;;;19.00;91.40;;;;;;5087092;28;20127;-52
2021/06/04 05:50:53;;;;;;;58.22;39.95;;;19.20;91.20;;;;;;5064291;28;20055;-52
2021/06/04 05:53:23;;;;;;;57.72;39.13;;;19.50;90.40;;;;;;5083656;28;20107;-54
2021/06/04 05:55:48;;;;;;;49.28;35.45;;;19.60;90.30;;;;;;5076441;28;20072;-54
2021/06/04 05:58:16;;;;;;;55.40;37.58;;;19.60;90.00;;;;;;5081065;28;20068;-56
2021/06/04 06:00:46;;;;;;;51.38;38.25;;;19.60;89.80;;;;;;5083831;28;20048;-55
2021/06/04 06:03:15;;;;;;;55.63;37.22;;;19.60;89.50;;;;;;5082067;28;20562;-55
2021/06/04 06:05:41;;;;;;;49.90;35.50;;;19.60;89.60;;;;;;5084102;28;20056;-56
2021/06/04 06:08:08;;;;;;;51.35;35.45;;;19.50;89.50;;;;;;5081878;28;20501;-56
2021/06/04 06:10:33;;;;;;;45.20;33.70;;;19.40;89.70;;;;;;5085432;28;20120;-56
2021/06/04 06:13:02;;;;;;;47.25;33.75;;;19.40;90.10;;;;;;5079121;28;20064;-55
2021/06/04 06:15:30;;;;;;;44.88;33.95;;;19.30;90.20;;;;;;5091203;28;20074;-55
2021/06/04 06:17:57;;;;;;;52.08;34.67;;;19.20;90.30;;;;;;5092746;28;20500;-56
2021/06/04 06:20:27;;;;;;;55.38;35.75;;;19.20;90.50;;;;;;5075148;28;20048;-56
2021/06/04 06:22:56;;;;;;;48.17;34.40;;;19.10;90.50;;;;;;5092006;28;20051;-56
2021/06/04 06:25:27;;;;;;;48.88;34.88;;;19.10;90.40;;;;;;5074047;28;20085;-56
2021/06/04 06:27:53;;;;;;;50.00;34.67;;;19.10;90.30;;;;;;5054937;28;20049;-54
2021/06/04 06:30:23;;;;;;;47.88;33.80;;;19.10;90.50;;;;;;5089048;28;20106;-50
2021/06/04 06:32:50;;;;;;;46.10;35.20;;;19.10;90.60;;;;;;5090956;28;20036;-51
2021/06/04 06:35:19;;;;;;;50.90;34.05;;;19.10;90.50;;;;;;5068422;28;20065;-52
2021/06/04 06:37:45;;;;;;;51.05;35.78;;;19.10;90.70;;;;;;5093810;28;20079;-57
2021/06/04 06:40:12;;;;;;;46.95;33.60;;;19.10;90.80;;;;;;5075985;28;20059;-55
2021/06/04 06:42:37;;;;;;;45.15;33.10;;;19.20;90.80;;;;;;5083995;28;20056;-56
2021/06/04 06:45:08;;;;;;;48.20;32.42;;;19.30;90.50;;;;;;5080870;28;20421;-55
2021/06/04 06:47:38;;;;;;;43.65;34.13;;;19.30;90.60;;;;;;5082516;28;20040;-57
2021/06/04 06:50:10;;;;;;;45.35;34.22;;;19.40;90.50;;;;;;5081689;28;20047;-52
2021/06/04 06:52:37;;;;;;;44.53;33.38;;;19.40;90.60;;;;;;5060862;28;20044;-56
2021/06/04 06:55:06;;;;;;;45.70;33.05;;;19.50;90.60;;;;;;5075384;28;20036;-51
2021/06/04 06:57:34;;;;;;;42.65;31.75;;;19.60;90.60;;;;;;5075520;28;20040;-52
2021/06/04 06:59:59;;;;;;;45.20;32.45;;;19.70;90.40;;;;;;5042409;28;20619;-51
2021/06/04 07:02:25;;;;;;;38.15;28.65;;;19.80;90.30;;;;;;5082792;28;20095;-56
2021/06/04 07:04:51;;;;;;;40.28;31.05;;;20.00;88.30;;;;;;5075116;28;20407;-54
2021/06/04 07:07:20;;;;;;;42.17;30.60;;;20.10;88.50;;;;;;5083414;28;20044;-56
2021/06/04 07:09:47;;;;;;;36.85;26.90;;;20.20;88.50;;;;;;5079679;28;19973;-54
2021/06/04 07:12:13;;;;;;;35.15;27.02;;;20.20;87.60;;;;;;5074880;28;20036;-54
2021/06/04 07:14:39;;;;;;;37.28;28.63;;;20.20;87.00;;;;;;5074239;28;20053;-55
2021/06/04 07:17:05;;;;;;;35.60;27.42;;;20.30;86.60;;;;;;5075877;28;20036;-57
2021/06/04 07:19:34;;;;;;;32.70;25.63;;;20.40;86.50;;;;;;5076757;28;20072;-56
2021/06/04 07:22:03;;;;;;;38.33;27.80;;;20.40;86.80;;;;;;5082099;28;20138;-57
2021/06/04 07:24:29;;;;;;;39.42;28.60;;;20.50;86.60;;;;;;5060871;28;20102;-56
2021/06/04 07:27:01;;;;;;;38.08;28.05;;;20.50;86.70;;;;;;5080287;28;20039;-53
2021/06/04 07:29:30;;;;;;;36.58;29.27;;;20.50;86.00;;;;;;5061100;28;20040;-55
2021/06/04 07:31:58;;;;;;;38.75;30.77;;;20.40;86.00;;;;;;5079964;28;20052;-56
2021/06/04 07:34:28;;;;;;;44.47;30.90;;;20.40;86.80;;;;;;5087314;28;20097;-56
2021/06/04 07:37:03;;;;;;;42.22;31.52;;;20.40;87.50;;;;;;5080816;28;20036;-56
2021/06/04 07:39:34;;;;;;;39.50;28.92;;;20.30;88.30;;;;;;5055126;28;20048;-54
2021/06/04 07:42:06;;;;;;;43.70;31.65;;;20.30;87.50;;;;;;5088301;28;20040;-57
2021/06/04 07:44:32;;;;;;;43.13;30.65;;;20.30;87.50;;;;;;5101830;28;20044;-52
2021/06/04 07:46:58;;;;;;;39.70;29.30;;;20.40;87.10;;;;;;5063286;28;20135;-57
2021/06/04 07:49:26;;;;;;;40.70;29.35;;;20.50;86.60;;;;;;5075723;28;20036;-51
2021/06/04 07:51:56;;;;;;;38.85;28.88;;;20.60;86.40;;;;;;5077113;28;20062;-54
2021/06/04 07:54:24;;;;;;;37.35;28.80;;;20.80;86.30;;;;;;5076476;28;20563;-51
2021/06/04 07:56:53;;;;;;;36.85;26.77;;;21.00;86.10;;;;;;5087503;28;20036;-54
2021/06/04 07:59:18;;;;;;;42.75;29.35;;;21.20;84.50;;;;;;5089487;28;20157;-58
2021/06/04 08:01:45;;;;;;;40.20;27.33;;;21.40;84.60;;;;;;5098613;28;20116;-53
2021/06/04 08:04:12;;;;;;;29.35;23.10;;;21.50;84.70;;;;;;5089603;28;20040;-56
2021/06/04 08:06:40;;;;;;;31.08;23.05;;;21.60;82.50;;;;;;5081664;28;20540;-55
2021/06/04 08:09:07;;;;;;;28.38;21.95;;;21.70;81.70;;;;;;5080354;28;20094;-57
2021/06/04 08:11:46;;;;;;;33.08;22.13;;;21.70;80.70;;;;;;5081540;28;20052;-56
2021/06/04 08:14:15;;;;;;;28.27;21.27;;;21.80;80.40;;;;;;5083966;28;20040;-55
2021/06/04 08:16:44;;;;;;;29.80;22.15;;;21.90;80.90;;;;;;5054950;28;20147;-56
2021/06/04 08:19:32;;;;;;;26.17;20.92;;;22.00;81.80;;;;;;5067663;28;20080;-56
2021/06/04 08:22:00;;;;;;;30.30;21.15;;;21.90;80.80;;;;;;5069360;28;20561;-56
2021/06/04 08:24:32;;;;;;;25.38;20.40;;;21.90;80.90;;;;;;5079425;28;20063;-57
2021/06/04 08:27:01;;;;;;;26.75;21.08;;;21.90;81.00;;;;;;5062613;28;20043;-53
2021/06/04 08:29:30;;;;;;;28.05;20.95;;;21.90;81.20;;;;;;5072158;28;20040;-57
2021/06/04 08:32:00;;;;;;;;;;;22.00;80.50;;;;;;5097049;28;20041;-53
2021/06/04 08:34:27;;;;;;;31.90;20.70;;;22.10;80.40;;;;;;5081640;28;20385;-56
2021/06/04 08:36:55;;;;;;;24.15;20.00;;;22.10;80.70;;;;;;5093479;28;20067;-56
2021/06/04 08:39:28;;;;;;;24.75;20.88;;;22.20;81.00;;;;;;5083407;28;20118;-56
2021/06/04 08:42:29;;;;;;;26.45;22.58;;;22.20;79.90;;;;;;5092440;28;20511;-54
2021/06/04 08:45:15;;;;;;;28.10;21.73;;;22.30;79.70;;;;;;5072391;28;20048;-57
2021/06/04 08:47:45;;;;;;;29.38;23.10;;;22.30;80.70;;;;;;5073647;28;20492;-55
2021/06/04 08:50:38;;;;;;;27.17;21.85;;;22.30;78.40;;;;;;5057909;28;20183;-56
2021/06/04 08:53:24;;;;;;;31.75;22.95;;;22.40;78.90;;;;;;5089574;28;20075;-54
2021/06/04 08:56:00;;;;;;;30.75;22.05;;;22.40;78.30;;;;;;5069893;28;20036;-55
2021/06/04 08:58:44;;;;;;;29.90;23.77;;;22.50;78.30;;;;;;5094492;28;20050;-57
2021/06/04 09:01:16;;;;;;;28.20;22.98;;;22.50;78.10;;;;;;5093117;28;20074;-55
2021/06/04 09:04:07;;;;;;;33.83;23.85;;;22.60;77.60;;;;;;5070500;28;20044;-55
2021/06/04 09:06:45;;;;;;;28.02;24.35;;;22.70;76.30;;;;;;5085933;28;20044;-57
2021/06/04 09:09:30;;;;;;;31.02;24.27;;;22.70;76.40;;;;;;5091327;28;20127;-57
2021/06/04 09:12:03;;;;;;;32.50;24.60;;;22.80;76.50;;;;;;5084108;28;20040;-54
2021/06/04 09:14:31;;;;;;;29.50;24.02;;;22.80;76.70;;;;;;5076220;28;20508;-55
2021/06/04 09:17:21;;;;;;;29.48;22.35;;;22.90;76.80;;;;;;5075579;28;20048;-58
2021/06/04 09:20:08;;;;;;;29.35;22.52;;;23.00;77.10;;;;;;5093879;28;20036;-57
2021/06/04 09:22:42;;;;;;;28.90;22.27;;;23.10;76.50;;;;;;5092118;28;20412;-54
2021/06/04 09:25:13;;;;;;;28.83;22.40;;;23.10;75.60;;;;;;5085918;28;20037;-54
2021/06/04 09:27:41;;;;;;;;;;;23.10;75.90;;;;;;5068821;28;20113;-57
2021/06/04 09:30:10;;;;;;;26.17;20.65;;;23.20;76.10;;;;;;5088914;28;19920;-54
2021/06/04 09:32:36;;;;;;;24.52;19.63;;;23.30;76.30;;;;;;5079193;28;20071;-55
2021/06/04 09:35:18;;;;;;;23.90;19.20;;;23.40;76.30;;;;;;5090033;28;20036;-55
2021/06/04 09:37:46;;;;;;;22.35;18.42;;;23.40;74.50;;;;;;5073668;28;20048;-56
2021/06/04 09:40:23;;;;;;;21.92;16.55;;;23.50;72.50;;;;;;5089665;28;20489;-54
2021/06/04 09:43:03;;;;;;;19.70;15.52;;;23.50;70.20;;;;;;5084651;28;20068;-54
2021/06/04 09:45:40;;;;;;;20.00;14.68;;;23.60;72.30;;;;;;5088577;28;20044;-55
2021/06/04 09:48:29;;;;;;;22.15;16.55;;;23.60;68.50;;;;;;5091323;28;20524;-55
2021/06/04 09:51:09;;;;;;;21.13;16.02;;;23.70;70.20;;;;;;5081210;28;20063;-55
2021/06/04 09:53:42;;;;;;;21.38;15.60;;;23.70;70.40;;;;;;5079113;28;20040;-54
2021/06/04 09:56:08;;;;;;;23.90;17.83;;;23.70;70.10;;;;;;5069150;28;20051;-54
2021/06/04 09:58:58;;;;;;;23.67;17.90;;;23.80;69.20;;;;;;5089906;28;20194;-54
2021/06/04 10:01:29;;;;;;;21.88;17.08;;;23.90;70.80;;;;;;5079497;28;20055;-57
2021/06/04 10:03:59;;;;;;;20.15;14.98;;;23.90;70.70;;;;;;5070280;28;20040;-55
2021/06/04 10:06:38;;;;;;;23.00;19.00;;;24.00;69.20;;;;;;5089585;28;20344;-56
2021/06/04 10:09:23;;;;;;;22.60;18.05;;;24.00;69.70;;;;;;5092174;28;20082;-55
2021/06/04 10:12:00;;;;;;;25.38;16.15;;;24.00;69.20;;;;;;5062427;28;20503;-51
2021/06/04 10:14:53;;;;;;;21.42;14.98;;;24.00;68.50;;;;;;5063452;28;20097;-53
2021/06/04 10:17:59;;;;;;;21.95;15.13;;;24.20;68.00;;;;;;5079122;28;20042;-54
2021/06/04 10:20:44;;;;;;;17.88;14.55;;;24.20;64.70;;;;;;5078827;28;20079;-52
2021/06/04 10:23:36;;;;;;;20.40;15.20;;;24.30;67.00;;;;;;5079479;28;20048;-54
2021/06/04 10:26:27;;;;;;;21.48;14.20;;;24.40;66.80;;;;;;5084859;28;20090;-57
2021/06/04 10:29:16;;;;;;;22.52;16.65;;;24.50;67.60;;;;;;5075796;28;20186;-57
2021/06/04 10:31:54;;;;;;;23.08;18.85;;;24.60;66.60;;;;;;5084263;28;20048;-51
2021/06/04 10:34:29;;;;;;;27.15;19.73;;;24.60;67.90;;;;;;5074860;28;20097;-54
2021/06/04 10:36:57;;;;;;;25.73;20.23;;;24.60;67.60;;;;;;5080160;28;20044;-54
2021/06/04 10:39:40;;;;;;;25.15;19.60;;;24.70;67.30;;;;;;5061921;28;20078;-54
2021/06/04 10:42:54;;;;;;;26.55;20.08;;;24.80;67.40;;;;;;5068371;28;20089;-54
2021/06/04 10:45:26;;;;;;;19.58;16.90;;;24.80;67.40;;;;;;5862409;22;20410;-59
2021/06/04 10:48:29;;;;;;;20.88;16.90;;;24.90;67.60;;;;;;5065124;28;20051;-60
2021/06/04 10:51:20;;;;;;;21.45;18.27;;;25.00;66.30;;;;;;5065662;28;20123;-59
2021/06/04 10:54:13;;;;;;;23.83;18.85;;;25.10;66.40;;;;;;5059291;28;20033;-59
2021/06/04 10:56:43;;;;;;;25.73;18.15;;;25.10;65.70;;;;;;5061306;28;20448;-59
2021/06/04 10:59:33;;;;;;;25.70;17.92;;;25.10;66.70;;;;;;5050223;28;20056;-59
2021/06/04 11:02:16;;;;;;;18.10;14.43;;;25.20;65.40;;;;;;5057725;28;20117;-60
2021/06/04 11:05:01;;;;;;;24.92;16.25;;;25.20;65.20;;;;;;5048506;28;20044;-59
2021/06/04 11:07:38;;;;;;;20.80;15.52;;;25.30;64.90;;;;;;5056932;28;20097;-60
2021/06/04 11:10:06;;;;;;;20.70;12.27;;;25.30;65.10;;;;;;5059187;28;20044;-60
2021/06/04 11:12:53;;;;;;;17.85;14.18;;;25.30;64.80;;;;;;5050115;28;20068;-58
2021/06/04 11:15:54;;;;;;;19.90;14.98;;;25.40;63.10;;;;;;5042021;28;20071;-59
2021/06/04 11:18:44;;;;;;;20.70;15.38;;;25.50;64.90;;;;;;5019658;28;20460;-58
2021/06/04 11:21:34;;;;;;;17.48;14.45;;;25.60;64.30;;;;;;5057255;28;20049;-58
2021/06/04 11:24:03;;;;;;;17.50;13.30;;;25.60;62.70;;;;;;5053194;28;20655;-59
2021/06/04 11:26:37;;;;;;;16.67;11.98;;;25.60;62.60;;;;;;5054361;28;20044;-58
2021/06/04 11:29:20;;;;;;;18.63;12.93;;;25.60;61.50;;;;;;5053092;28;20116;-58
2021/06/04 11:31:54;;;;;;;18.13;12.30;;;25.70;61.50;;;;;;5035924;28;20043;-59
2021/06/04 11:34:41;;;;;;;15.18;11.45;;;25.70;61.80;;;;;;5046248;28;20041;-56
2021/06/04 11:37:15;;;;;;;16.70;12.27;;;25.70;60.50;;;;;;5019044;28;20211;-57
2021/06/04 11:39:46;;;;;;;14.48;11.05;;;25.70;60.90;;;;;;5051350;28;20037;-57
2021/06/04 11:42:16;;;;;;;16.48;11.18;;;25.80;61.00;;;;;;5037341;28;20500;-57
2021/06/04 11:44:45;;;;;;;15.52;9.85;;;25.90;60.60;;;;;;5050799;28;20106;-57
2021/06/04 11:47:11;;;;;;;15.70;11.20;;;26.00;59.90;;;;;;5036020;28;20455;-57
2021/06/04 11:49:55;;;;;;;22.17;15.20;;;26.00;60.90;;;;;;5052159;28;20308;-58
2021/06/04 11:52:30;;;;;;;20.27;14.15;;;26.10;61.30;;;;;;5034575;28;20053;-56
2021/06/04 11:55:19;;;;;;;16.52;14.00;;;26.00;61.10;;;;;;5034196;28;20042;-57
2021/06/04 11:57:51;;;;;;;17.67;14.90;;;26.00;61.10;;;;;;5033471;28;20075;-58
2021/06/04 12:00:26;;;;;;;21.52;16.27;;;26.10;61.70;;;;;;5033073;28;20162;-58
2021/06/04 12:03:03;;;;;;;21.10;16.05;;;26.20;61.60;;;;;;5034456;28;20512;-58
2021/06/04 12:05:34;;;;;;;16.38;11.07;;;26.00;61.20;;;;;;5033149;28;20045;-57
2021/06/04 12:08:37;;;;;;;17.08;10.93;;;25.90;60.50;;;;;;5034217;28;20114;-57
2021/06/04 12:11:16;;;;;;;14.13;10.25;;;25.70;58.70;;;;;;5052234;28;20509;-57
2021/06/04 12:13:44;;;;;;;15.40;12.32;;;25.50;61.00;;;;;;5049467;28;20037;-58
2021/06/04 12:16:26;;;;;;;19.10;13.27;;;25.30;61.80;;;;;;5037214;28;20055;-58
2021/06/04 12:19:30;;;;;;;18.42;13.68;;;25.20;63.10;;;;;;5047810;28;20106;-58
2021/06/04 12:22:01;;;;;;;17.77;13.57;;;25.00;63.00;;;;;;5051432;28;20048;-58
2021/06/04 12:24:27;;;;;;;14.38;11.38;;;25.00;63.70;;;;;;5046740;28;20084;-57
2021/06/04 12:26:58;;;;;;;14.35;11.40;;;25.10;63.50;;;;;;5047101;28;20117;-57
2021/06/04 12:29:26;;;;;;;16.00;11.27;;;25.30;63.40;;;;;;5015983;28;20033;-57
2021/06/04 12:32:10;;;;;;;12.48;10.32;;;25.40;62.40;;;;;;5048019;28;20045;-58
2021/06/04 12:34:47;;;;;;;17.92;11.13;;;25.70;62.50;;;;;;5049131;28;20053;-57
2021/06/04 12:37:19;;;;;;;13.50;9.75;;;25.80;61.60;;;;;;5048315;28;20069;-58
2021/06/04 12:40:21;;;;;;;15.38;10.52;;;26.00;60.60;;;;;;5051664;28;20056;-57
2021/06/04 12:43:10;;;;;;;14.63;10.68;;;26.10;60.90;;;;;;5046103;28;20044;-58
2021/06/04 12:45:43;;;;;;;14.20;8.73;;;26.20;58.60;;;;;;5051585;28;20037;-58
2021/06/04 12:48:28;;;;;;;14.48;9.95;;;26.20;59.70;;;;;;5049097;28;20099;-58
2021/06/04 12:50:54;;;;;;;13.02;9.48;;;26.30;60.00;;;;;;5040152;28;20059;-58
2021/06/04 12:53:20;;;;;;;15.45;10.50;;;26.40;58.50;;;;;;5046429;28;20041;-59
2021/06/04 12:55:52;;;;;;;16.48;10.73;;;26.50;56.20;;;;;;5009080;28;20441;-58
2021/06/04 12:58:38;;;;;;;15.20;11.57;;;26.40;58.80;;;;;;5005934;28;20053;-58